BGKK

Kulusuk Airport

Kulusuk, Greenland
METAR BGKK 201050Z 06032G46KT 3000 RA OVC015 04/02 Q1015
Observed Flight Rules
Nov-20 @ 10:50 UTC (an hour ago) Instrument Flight Rules
Wind Visibility Clouds Conditions
60° at 32 knots
 Gusting to 46 knots
2,993 meters
  • Overcast at 1,500' AGL
  • Rain
Temperatures Readings
Current 4°C / 39°F
Dewpoint 2°C / 36°F
Humidity 87%
Altimeter 29.97" Hg
Pressure 1015 hPa
Elevation 34
METAR BGKK 201050Z 06032G46KT 3000 RA OVC015 04/02 Q1015
Observed Flight Rules
Nov-20 @ 10:50 UTC
(an hour ago)
IFR
Wind Visibility
60° at 32 knots
 Gusting to 46 knots
2,993 meters
Clouds
  • Overcast at 1,500' AGL
Conditions
  • Rain
Temperature Dewpoint
4°C / 39°F 2°C / 36°F
Humidity Altimeter Pressure
87% 29.97" Hg 1015 hPa